sensor_id;sensor_type;location;lat;lon;timestamp;P1;durP1;ratioP1;P2;durP2;ratioP2
82030;SDS011;71592;52.178;4.512;2024-01-25T00:00:15;21.77;;;4.30;;
82030;SDS011;71592;52.178;4.512;2024-01-25T00:02:41;14.50;;;3.47;;
82030;SDS011;71592;52.178;4.512;2024-01-25T00:05:06;29.10;;;3.70;;
82030;SDS011;71592;52.178;4.512;2024-01-25T00:07:32;18.08;;;3.90;;
82030;SDS011;71592;52.178;4.512;2024-01-25T00:09:57;16.93;;;3.30;;
82030;SDS011;71592;52.178;4.512;2024-01-25T00:12:22;21.80;;;3.65;;
82030;SDS011;71592;52.178;4.512;2024-01-25T00:14:51;17.13;;;4.60;;
82030;SDS011;71592;52.178;4.512;2024-01-25T00:17:17;19.55;;;5.28;;
82030;SDS011;71592;52.178;4.512;2024-01-25T00:19:43;15.95;;;4.15;;
82030;SDS011;71592;52.178;4.512;2024-01-25T00:22:08;19.08;;;3.92;;
82030;SDS011;71592;52.178;4.512;2024-01-25T00:24:33;19.85;;;4.20;;
82030;SDS011;71592;52.178;4.512;2024-01-25T00:27:01;15.70;;;4.25;;
82030;SDS011;71592;52.178;4.512;2024-01-25T00:29:27;20.58;;;3.92;;
82030;SDS011;71592;52.178;4.512;2024-01-25T00:31:53;16.67;;;4.40;;
82030;SDS011;71592;52.178;4.512;2024-01-25T00:34:21;13.47;;;4.20;;
82030;SDS011;71592;52.178;4.512;2024-01-25T00:36:49;20.10;;;3.97;;
82030;SDS011;71592;52.178;4.512;2024-01-25T00:39:17;21.15;;;4.32;;
82030;SDS011;71592;52.178;4.512;2024-01-25T00:41:43;12.07;;;4.65;;
82030;SDS011;71592;52.178;4.512;2024-01-25T00:44:09;17.05;;;3.75;;
82030;SDS011;71592;52.178;4.512;2024-01-25T00:46:34;13.75;;;3.20;;
82030;SDS011;71592;52.178;4.512;2024-01-25T00:49:00;16.98;;;4.65;;
82030;SDS011;71592;52.178;4.512;2024-01-25T00:51:25;16.23;;;4.30;;
82030;SDS011;71592;52.178;4.512;2024-01-25T00:53:50;13.15;;;3.20;;
82030;SDS011;71592;52.178;4.512;2024-01-25T00:56:16;15.30;;;3.50;;
82030;SDS011;71592;52.178;4.512;2024-01-25T00:58:41;16.42;;;3.95;;
82030;SDS011;71592;52.178;4.512;2024-01-25T01:01:07;13.63;;;4.05;;
82030;SDS011;71592;52.178;4.512;2024-01-25T01:03:32;16.08;;;3.78;;
82030;SDS011;71592;52.178;4.512;2024-01-25T01:05:58;16.15;;;3.45;;
82030;SDS011;71592;52.178;4.512;2024-01-25T01:08:23;15.25;;;3.42;;
82030;SDS011;71592;52.178;4.512;2024-01-25T01:10:48;14.10;;;4.07;;
82030;SDS011;71592;52.178;4.512;2024-01-25T01:13:14;15.13;;;3.65;;
82030;SDS011;71592;52.178;4.512;2024-01-25T01:15:39;16.67;;;3.87;;
82030;SDS011;71592;52.178;4.512;2024-01-25T01:18:04;14.07;;;3.80;;
82030;SDS011;71592;52.178;4.512;2024-01-25T01:20:30;20.05;;;4.00;;
82030;SDS011;71592;52.178;4.512;2024-01-25T01:22:55;13.10;;;4.10;;
82030;SDS011;71592;52.178;4.512;2024-01-25T01:25:21;18.10;;;4.20;;
82030;SDS011;71592;52.178;4.512;2024-01-25T01:27:46;19.67;;;3.73;;
82030;SDS011;71592;52.178;4.512;2024-01-25T01:30:12;15.75;;;3.83;;
82030;SDS011;71592;52.178;4.512;2024-01-25T01:32:37;14.67;;;3.73;;
82030;SDS011;71592;52.178;4.512;2024-01-25T01:35:02;22.73;;;4.23;;
82030;SDS011;71592;52.178;4.512;2024-01-25T01:37:27;20.90;;;4.00;;
82030;SDS011;71592;52.178;4.512;2024-01-25T01:39:53;20.58;;;3.75;;
82030;SDS011;71592;52.178;4.512;2024-01-25T01:42:20;17.35;;;3.63;;
82030;SDS011;71592;52.178;4.512;2024-01-25T01:44:45;15.37;;;4.23;;
82030;SDS011;71592;52.178;4.512;2024-01-25T01:47:11;19.85;;;4.60;;
82030;SDS011;71592;52.178;4.512;2024-01-25T01:49:36;16.30;;;4.27;;
82030;SDS011;71592;52.178;4.512;2024-01-25T01:52:02;16.20;;;4.60;;
82030;SDS011;71592;52.178;4.512;2024-01-25T01:54:27;14.55;;;3.85;;
82030;SDS011;71592;52.178;4.512;2024-01-25T01:56:53;13.80;;;4.43;;
82030;SDS011;71592;52.178;4.512;2024-01-25T01:59:18;21.20;;;5.07;;
82030;SDS011;71592;52.178;4.512;2024-01-25T02:01:45;17.23;;;3.70;;
82030;SDS011;71592;52.178;4.512;2024-01-25T02:04:10;17.53;;;4.67;;
82030;SDS011;71592;52.178;4.512;2024-01-25T02:06:36;16.02;;;3.53;;
82030;SDS011;71592;52.178;4.512;2024-01-25T02:09:01;12.77;;;3.23;;
82030;SDS011;71592;52.178;4.512;2024-01-25T02:11:26;17.08;;;3.92;;
82030;SDS011;71592;52.178;4.512;2024-01-25T02:13:52;11.68;;;3.85;;
82030;SDS011;71592;52.178;4.512;2024-01-25T02:16:17;12.40;;;3.50;;
82030;SDS011;71592;52.178;4.512;2024-01-25T02:18:43;16.23;;;3.30;;
82030;SDS011;71592;52.178;4.512;2024-01-25T02:21:09;19.50;;;3.97;;
82030;SDS011;71592;52.178;4.512;2024-01-25T02:23:34;16.55;;;4.47;;
82030;SDS011;71592;52.178;4.512;2024-01-25T02:25:59;13.40;;;3.60;;
82030;SDS011;71592;52.178;4.512;2024-01-25T02:28:25;18.10;;;4.13;;
82030;SDS011;71592;52.178;4.512;2024-01-25T02:30:50;14.13;;;3.10;;
82030;SDS011;71592;52.178;4.512;2024-01-25T02:33:15;13.00;;;3.23;;
82030;SDS011;71592;52.178;4.512;2024-01-25T02:35:40;17.60;;;3.83;;
82030;SDS011;71592;52.178;4.512;2024-01-25T02:38:06;18.73;;;4.50;;
82030;SDS011;71592;52.178;4.512;2024-01-25T02:40:31;13.40;;;3.77;;
82030;SDS011;71592;52.178;4.512;2024-01-25T02:42:56;16.43;;;4.17;;
82030;SDS011;71592;52.178;4.512;2024-01-25T02:45:22;15.77;;;3.95;;
82030;SDS011;71592;52.178;4.512;2024-01-25T02:47:48;15.38;;;4.15;;
82030;SDS011;71592;52.178;4.512;2024-01-25T02:50:13;17.25;;;4.70;;
82030;SDS011;71592;52.178;4.512;2024-01-25T02:52:39;16.20;;;3.65;;
82030;SDS011;71592;52.178;4.512;2024-01-25T02:55:04;16.75;;;4.32;;
82030;SDS011;71592;52.178;4.512;2024-01-25T02:57:30;16.58;;;3.47;;
82030;SDS011;71592;52.178;4.512;2024-01-25T02:59:56;16.27;;;3.63;;
82030;SDS011;71592;52.178;4.512;2024-01-25T03:02:21;12.55;;;3.85;;
82030;SDS011;71592;52.178;4.512;2024-01-25T03:04:47;13.90;;;4.00;;
82030;SDS011;71592;52.178;4.512;2024-01-25T03:07:13;15.80;;;3.80;;
82030;SDS011;71592;52.178;4.512;2024-01-25T03:09:38;15.93;;;3.28;;
82030;SDS011;71592;52.178;4.512;2024-01-25T03:12:03;14.07;;;4.03;;
82030;SDS011;71592;52.178;4.512;2024-01-25T03:14:29;15.65;;;4.18;;
82030;SDS011;71592;52.178;4.512;2024-01-25T03:16:54;12.10;;;4.53;;
82030;SDS011;71592;52.178;4.512;2024-01-25T03:19:20;19.90;;;3.90;;
82030;SDS011;71592;52.178;4.512;2024-01-25T03:21:45;17.87;;;3.90;;
82030;SDS011;71592;52.178;4.512;2024-01-25T03:24:10;15.93;;;4.33;;
82030;SDS011;71592;52.178;4.512;2024-01-25T03:26:36;13.02;;;3.13;;
82030;SDS011;71592;52.178;4.512;2024-01-25T03:29:01;15.60;;;4.03;;
82030;SDS011;71592;52.178;4.512;2024-01-25T03:31:26;17.50;;;4.17;;
82030;SDS011;71592;52.178;4.512;2024-01-25T03:33:51;20.90;;;3.90;;
82030;SDS011;71592;52.178;4.512;2024-01-25T03:36:17;18.25;;;4.60;;
82030;SDS011;71592;52.178;4.512;2024-01-25T03:38:42;18.10;;;4.80;;
82030;SDS011;71592;52.178;4.512;2024-01-25T03:41:08;16.60;;;3.50;;
82030;SDS011;71592;52.178;4.512;2024-01-25T03:43:34;15.25;;;3.97;;
82030;SDS011;71592;52.178;4.512;2024-01-25T03:45:59;14.55;;;4.05;;
82030;SDS011;71592;52.178;4.512;2024-01-25T03:48:25;17.10;;;4.18;;
82030;SDS011;71592;52.178;4.512;2024-01-25T03:50:50;18.45;;;4.55;;
82030;SDS011;71592;52.178;4.512;2024-01-25T03:53:15;16.03;;;3.77;;
82030;SDS011;71592;52.178;4.512;2024-01-25T03:55:41;13.98;;;3.13;;
82030;SDS011;71592;52.178;4.512;2024-01-25T03:58:06;16.70;;;4.35;;
82030;SDS011;71592;52.178;4.512;2024-01-25T04:00:31;17.52;;;4.15;;
82030;SDS011;71592;52.178;4.512;2024-01-25T04:02:57;15.48;;;3.88;;
82030;SDS011;71592;52.178;4.512;2024-01-25T04:05:22;15.20;;;3.90;;
82030;SDS011;71592;52.178;4.512;2024-01-25T04:07:47;11.47;;;3.47;;
82030;SDS011;71592;52.178;4.512;2024-01-25T04:10:13;17.65;;;3.97;;
82030;SDS011;71592;52.178;4.512;2024-01-25T04:12:38;19.17;;;3.83;;
82030;SDS011;71592;52.178;4.512;2024-01-25T04:15:04;12.13;;;3.92;;
82030;SDS011;71592;52.178;4.512;2024-01-25T04:17:30;20.13;;;4.55;;
82030;SDS011;71592;52.178;4.512;2024-01-25T04:19:55;19.67;;;4.63;;
82030;SDS011;71592;52.178;4.512;2024-01-25T04:22:20;16.57;;;3.37;;
82030;SDS011;71592;52.178;4.512;2024-01-25T04:24:49;19.25;;;4.32;;
82030;SDS011;71592;52.178;4.512;2024-01-25T04:27:15;14.00;;;3.50;;
82030;SDS011;71592;52.178;4.512;2024-01-25T04:29:40;16.40;;;3.55;;
82030;SDS011;71592;52.178;4.512;2024-01-25T04:32:08;14.93;;;3.75;;
82030;SDS011;71592;52.178;4.512;2024-01-25T04:34:35;11.70;;;3.57;;
82030;SDS011;71592;52.178;4.512;2024-01-25T04:37:00;17.70;;;3.75;;
82030;SDS011;71592;52.178;4.512;2024-01-25T04:39:26;14.80;;;3.97;;
82030;SDS011;71592;52.178;4.512;2024-01-25T04:41:51;12.18;;;3.83;;
82030;SDS011;71592;52.178;4.512;2024-01-25T04:44:17;15.27;;;3.80;;
82030;SDS011;71592;52.178;4.512;2024-01-25T04:46:43;17.63;;;3.92;;
82030;SDS011;71592;52.178;4.512;2024-01-25T04:49:08;12.90;;;3.72;;
82030;SDS011;71592;52.178;4.512;2024-01-25T04:51:34;15.63;;;4.28;;
82030;SDS011;71592;52.178;4.512;2024-01-25T04:53:59;15.83;;;3.37;;
82030;SDS011;71592;52.178;4.512;2024-01-25T04:56:25;20.00;;;4.73;;
82030;SDS011;71592;52.178;4.512;2024-01-25T04:58:50;18.53;;;4.73;;
82030;SDS011;71592;52.178;4.512;2024-01-25T05:01:15;20.77;;;3.93;;
82030;SDS011;71592;52.178;4.512;2024-01-25T05:03:40;16.20;;;4.03;;
82030;SDS011;71592;52.178;4.512;2024-01-25T05:06:06;11.03;;;3.90;;
82030;SDS011;71592;52.178;4.512;2024-01-25T05:08:31;18.77;;;4.83;;
82030;SDS011;71592;52.178;4.512;2024-01-25T05:10:56;14.70;;;3.80;;
82030;SDS011;71592;52.178;4.512;2024-01-25T05:13:22;14.90;;;3.80;;
82030;SDS011;71592;52.178;4.512;2024-01-25T05:15:47;15.15;;;3.97;;
82030;SDS011;71592;52.178;4.512;2024-01-25T05:18:13;20.42;;;4.53;;
82030;SDS011;71592;52.178;4.512;2024-01-25T05:20:38;15.90;;;4.53;;
82030;SDS011;71592;52.178;4.512;2024-01-25T05:23:04;12.15;;;3.40;;
82030;SDS011;71592;52.178;4.512;2024-01-25T05:25:29;18.20;;;3.92;;
82030;SDS011;71592;52.178;4.512;2024-01-25T05:27:55;14.07;;;3.83;;
82030;SDS011;71592;52.178;4.512;2024-01-25T05:30:21;15.50;;;4.00;;
82030;SDS011;71592;52.178;4.512;2024-01-25T05:32:46;18.00;;;3.95;;
82030;SDS011;71592;52.178;4.512;2024-01-25T05:35:13;21.58;;;4.13;;
82030;SDS011;71592;52.178;4.512;2024-01-25T05:37:39;21.88;;;4.15;;
82030;SDS011;71592;52.178;4.512;2024-01-25T05:40:04;17.83;;;4.00;;
82030;SDS011;71592;52.178;4.512;2024-01-25T05:42:30;18.23;;;4.47;;
82030;SDS011;71592;52.178;4.512;2024-01-25T05:44:55;13.97;;;3.50;;
82030;SDS011;71592;52.178;4.512;2024-01-25T05:47:20;16.47;;;4.23;;
82030;SDS011;71592;52.178;4.512;2024-01-25T05:49:46;14.82;;;4.40;;
82030;SDS011;71592;52.178;4.512;2024-01-25T05:52:12;17.17;;;3.47;;
82030;SDS011;71592;52.178;4.512;2024-01-25T05:54:37;18.13;;;4.30;;
82030;SDS011;71592;52.178;4.512;2024-01-25T05:57:02;14.13;;;4.30;;
82030;SDS011;71592;52.178;4.512;2024-01-25T05:59:29;15.73;;;3.50;;
82030;SDS011;71592;52.178;4.512;2024-01-25T06:01:54;17.33;;;3.75;;
82030;SDS011;71592;52.178;4.512;2024-01-25T06:04:20;16.52;;;4.03;;
82030;SDS011;71592;52.178;4.512;2024-01-25T06:06:45;17.38;;;3.97;;
82030;SDS011;71592;52.178;4.512;2024-01-25T06:09:10;16.50;;;3.93;;
82030;SDS011;71592;52.178;4.512;2024-01-25T06:11:35;12.03;;;3.70;;
82030;SDS011;71592;52.178;4.512;2024-01-25T06:14:02;15.38;;;3.97;;
82030;SDS011;71592;52.178;4.512;2024-01-25T06:16:27;18.93;;;5.70;;
82030;SDS011;71592;52.178;4.512;2024-01-25T06:18:53;12.67;;;3.97;;
82030;SDS011;71592;52.178;4.512;2024-01-25T06:21:18;14.30;;;3.53;;
82030;SDS011;71592;52.178;4.512;2024-01-25T06:23:43;13.03;;;3.60;;
82030;SDS011;71592;52.178;4.512;2024-01-25T06:26:08;16.93;;;3.87;;
82030;SDS011;71592;52.178;4.512;2024-01-25T06:28:33;18.27;;;4.10;;
82030;SDS011;71592;52.178;4.512;2024-01-25T06:31:00;18.45;;;5.32;;
82030;SDS011;71592;52.178;4.512;2024-01-25T06:33:25;12.15;;;3.60;;
82030;SDS011;71592;52.178;4.512;2024-01-25T06:35:51;16.47;;;3.87;;
82030;SDS011;71592;52.178;4.512;2024-01-25T06:38:16;20.03;;;3.67;;
82030;SDS011;71592;52.178;4.512;2024-01-25T06:40:41;12.97;;;3.43;;
82030;SDS011;71592;52.178;4.512;2024-01-25T06:43:06;12.88;;;3.80;;
82030;SDS011;71592;52.178;4.512;2024-01-25T06:45:32;14.13;;;4.97;;
82030;SDS011;71592;52.178;4.512;2024-01-25T06:47:57;12.07;;;3.37;;
82030;SDS011;71592;52.178;4.512;2024-01-25T06:50:22;12.93;;;3.83;;
82030;SDS011;71592;52.178;4.512;2024-01-25T06:52:48;15.02;;;5.03;;
82030;SDS011;71592;52.178;4.512;2024-01-25T06:55:13;16.95;;;4.00;;
82030;SDS011;71592;52.178;4.512;2024-01-25T06:57:39;20.43;;;4.23;;
82030;SDS011;71592;52.178;4.512;2024-01-25T07:00:05;16.42;;;4.40;;
82030;SDS011;71592;52.178;4.512;2024-01-25T07:02:31;14.57;;;3.72;;
82030;SDS011;71592;52.178;4.512;2024-01-25T07:04:56;20.20;;;4.67;;
82030;SDS011;71592;52.178;4.512;2024-01-25T07:07:22;17.73;;;4.10;;
82030;SDS011;71592;52.178;4.512;2024-01-25T07:09:47;15.47;;;3.47;;
82030;SDS011;71592;52.178;4.512;2024-01-25T07:12:12;13.93;;;3.37;;
82030;SDS011;71592;52.178;4.512;2024-01-25T07:14:37;13.73;;;3.97;;
82030;SDS011;71592;52.178;4.512;2024-01-25T07:17:03;16.53;;;3.57;;
82030;SDS011;71592;52.178;4.512;2024-01-25T07:19:28;20.63;;;4.63;;
82030;SDS011;71592;52.178;4.512;2024-01-25T07:21:54;11.13;;;3.50;;
82030;SDS011;71592;52.178;4.512;2024-01-25T07:24:19;18.08;;;3.20;;
82030;SDS011;71592;52.178;4.512;2024-01-25T07:26:45;16.90;;;3.60;;
82030;SDS011;71592;52.178;4.512;2024-01-25T07:29:10;13.33;;;4.53;;
82030;SDS011;71592;52.178;4.512;2024-01-25T07:31:35;14.47;;;3.80;;
82030;SDS011;71592;52.178;4.512;2024-01-25T07:34:00;14.90;;;4.73;;
82030;SDS011;71592;52.178;4.512;2024-01-25T07:36:26;15.93;;;4.43;;
82030;SDS011;71592;52.178;4.512;2024-01-25T07:38:51;19.17;;;4.43;;
82030;SDS011;71592;52.178;4.512;2024-01-25T07:41:16;17.27;;;4.03;;
82030;SDS011;71592;52.178;4.512;2024-01-25T07:43:41;18.20;;;4.50;;
82030;SDS011;71592;52.178;4.512;2024-01-25T07:46:08;13.43;;;4.43;;
82030;SDS011;71592;52.178;4.512;2024-01-25T07:48:33;19.25;;;4.03;;
82030;SDS011;71592;52.178;4.512;2024-01-25T07:50:58;13.40;;;3.63;;
82030;SDS011;71592;52.178;4.512;2024-01-25T07:53:24;16.15;;;4.45;;
82030;SDS011;71592;52.178;4.512;2024-01-25T07:55:49;14.13;;;3.58;;
82030;SDS011;71592;52.178;4.512;2024-01-25T07:58:15;19.20;;;4.43;;
82030;SDS011;71592;52.178;4.512;2024-01-25T08:00:41;13.55;;;3.58;;
82030;SDS011;71592;52.178;4.512;2024-01-25T08:03:07;19.60;;;4.85;;
82030;SDS011;71592;52.178;4.512;2024-01-25T08:05:32;15.27;;;4.30;;
82030;SDS011;71592;52.178;4.512;2024-01-25T08:07:57;12.67;;;3.70;;
82030;SDS011;71592;52.178;4.512;2024-01-25T08:10:23;17.07;;;4.57;;
82030;SDS011;71592;52.178;4.512;2024-01-25T08:12:50;19.50;;;4.77;;
82030;SDS011;71592;52.178;4.512;2024-01-25T08:15:16;15.93;;;4.28;;
82030;SDS011;71592;52.178;4.512;2024-01-25T08:17:41;21.93;;;5.63;;
82030;SDS011;71592;52.178;4.512;2024-01-25T08:20:07;17.90;;;4.45;;
82030;SDS011;71592;52.178;4.512;2024-01-25T08:22:34;15.48;;;4.15;;
82030;SDS011;71592;52.178;4.512;2024-01-25T08:24:59;15.60;;;3.38;;
82030;SDS011;71592;52.178;4.512;2024-01-25T08:27:24;11.05;;;5.00;;
82030;SDS011;71592;52.178;4.512;2024-01-25T08:29:50;17.77;;;4.93;;
82030;SDS011;71592;52.178;4.512;2024-01-25T08:32:15;13.93;;;3.40;;
82030;SDS011;71592;52.178;4.512;2024-01-25T08:34:40;17.00;;;4.17;;
82030;SDS011;71592;52.178;4.512;2024-01-25T08:37:05;16.73;;;5.00;;
82030;SDS011;71592;52.178;4.512;2024-01-25T08:39:31;19.23;;;4.57;;
82030;SDS011;71592;52.178;4.512;2024-01-25T08:41:56;19.03;;;4.93;;
82030;SDS011;71592;52.178;4.512;2024-01-25T08:44:25;18.73;;;5.47;;
82030;SDS011;71592;52.178;4.512;2024-01-25T08:46:50;17.20;;;3.50;;
82030;SDS011;71592;52.178;4.512;2024-01-25T08:49:16;18.58;;;5.68;;
82030;SDS011;71592;52.178;4.512;2024-01-25T08:51:41;16.60;;;5.18;;
82030;SDS011;71592;52.178;4.512;2024-01-25T08:54:07;12.90;;;3.70;;
82030;SDS011;71592;52.178;4.512;2024-01-25T08:56:32;22.00;;;5.07;;
82030;SDS011;71592;52.178;4.512;2024-01-25T08:58:57;17.20;;;4.60;;
82030;SDS011;71592;52.178;4.512;2024-01-25T09:01:22;21.50;;;5.00;;
82030;SDS011;71592;52.178;4.512;2024-01-25T09:03:48;17.33;;;4.40;;
82030;SDS011;71592;52.178;4.512;2024-01-25T09:06:13;17.30;;;5.15;;
82030;SDS011;71592;52.178;4.512;2024-01-25T09:08:40;25.52;;;5.68;;
82030;SDS011;71592;52.178;4.512;2024-01-25T09:11:05;16.25;;;4.97;;
82030;SDS011;71592;52.178;4.512;2024-01-25T09:13:30;19.40;;;5.43;;
82030;SDS011;71592;52.178;4.512;2024-01-25T09:15:57;18.52;;;4.78;;
82030;SDS011;71592;52.178;4.512;2024-01-25T09:18:22;15.33;;;4.57;;
82030;SDS011;71592;52.178;4.512;2024-01-25T09:20:47;22.07;;;5.77;;
82030;SDS011;71592;52.178;4.512;2024-01-25T09:23:14;20.25;;;5.18;;
82030;SDS011;71592;52.178;4.512;2024-01-25T09:25:41;17.70;;;5.35;;
82030;SDS011;71592;52.178;4.512;2024-01-25T09:28:06;15.88;;;5.13;;
82030;SDS011;71592;52.178;4.512;2024-01-25T09:30:32;16.43;;;5.13;;
82030;SDS011;71592;52.178;4.512;2024-01-25T09:32:57;19.57;;;5.80;;
82030;SDS011;71592;52.178;4.512;2024-01-25T09:35:22;16.52;;;4.85;;
82030;SDS011;71592;52.178;4.512;2024-01-25T09:37:48;15.55;;;5.30;;
82030;SDS011;71592;52.178;4.512;2024-01-25T09:40:17;15.38;;;4.72;;
82030;SDS011;71592;52.178;4.512;2024-01-25T09:42:42;20.23;;;5.45;;
82030;SDS011;71592;52.178;4.512;2024-01-25T09:45:08;16.60;;;5.10;;
82030;SDS011;71592;52.178;4.512;2024-01-25T09:47:36;18.63;;;4.70;;
82030;SDS011;71592;52.178;4.512;2024-01-25T09:50:01;13.10;;;4.83;;
82030;SDS011;71592;52.178;4.512;2024-01-25T09:52:26;16.47;;;4.70;;
82030;SDS011;71592;52.178;4.512;2024-01-25T09:54:52;19.20;;;6.38;;
82030;SDS011;71592;52.178;4.512;2024-01-25T09:57:22;12.25;;;4.57;;
82030;SDS011;71592;52.178;4.512;2024-01-25T09:59:49;18.52;;;5.18;;
82030;SDS011;71592;52.178;4.512;2024-01-25T10:02:15;19.02;;;4.38;;
82030;SDS011;71592;52.178;4.512;2024-01-25T10:04:40;21.02;;;4.88;;
82030;SDS011;71592;52.178;4.512;2024-01-25T10:07:06;18.47;;;4.63;;
82030;SDS011;71592;52.178;4.512;2024-01-25T10:09:37;19.60;;;5.28;;
82030;SDS011;71592;52.178;4.512;2024-01-25T10:12:03;15.65;;;5.80;;
82030;SDS011;71592;52.178;4.512;2024-01-25T10:14:28;18.73;;;5.40;;
82030;SDS011;71592;52.178;4.512;2024-01-25T10:16:53;13.40;;;4.70;;
82030;SDS011;71592;52.178;4.512;2024-01-25T10:19:20;19.38;;;5.15;;
82030;SDS011;71592;52.178;4.512;2024-01-25T10:21:45;15.05;;;5.65;;
82030;SDS011;71592;52.178;4.512;2024-01-25T10:24:11;17.55;;;4.72;;
82030;SDS011;71592;52.178;4.512;2024-01-25T10:26:37;18.30;;;5.63;;
82030;SDS011;71592;52.178;4.512;2024-01-25T10:29:02;15.80;;;5.37;;
82030;SDS011;71592;52.178;4.512;2024-01-25T10:31:28;17.30;;;5.97;;
82030;SDS011;71592;52.178;4.512;2024-01-25T10:33:54;14.90;;;5.70;;
82030;SDS011;71592;52.178;4.512;2024-01-25T10:36:20;15.00;;;5.50;;
82030;SDS011;71592;52.178;4.512;2024-01-25T10:38:45;18.58;;;6.28;;
82030;SDS011;71592;52.178;4.512;2024-01-25T10:41:13;21.42;;;5.63;;
82030;SDS011;71592;52.178;4.512;2024-01-25T10:43:38;23.15;;;6.50;;
82030;SDS011;71592;52.178;4.512;2024-01-25T10:46:03;19.47;;;6.03;;
82030;SDS011;71592;52.178;4.512;2024-01-25T10:48:29;18.58;;;5.45;;
82030;SDS011;71592;52.178;4.512;2024-01-25T10:50:55;18.77;;;5.22;;
82030;SDS011;71592;52.178;4.512;2024-01-25T10:53:22;22.63;;;5.85;;
82030;SDS011;71592;52.178;4.512;2024-01-25T10:55:48;18.10;;;5.45;;
82030;SDS011;71592;52.178;4.512;2024-01-25T10:58:14;21.42;;;6.25;;
82030;SDS011;71592;52.178;4.512;2024-01-25T11:00:40;15.80;;;4.72;;
82030;SDS011;71592;52.178;4.512;2024-01-25T11:03:06;20.40;;;5.50;;
82030;SDS011;71592;52.178;4.512;2024-01-25T11:05:31;18.05;;;5.00;;
82030;SDS011;71592;52.178;4.512;2024-01-25T11:07:56;16.83;;;5.78;;
82030;SDS011;71592;52.178;4.512;2024-01-25T11:10:24;15.77;;;5.38;;
82030;SDS011;71592;52.178;4.512;2024-01-25T11:12:59;15.90;;;5.47;;
82030;SDS011;71592;52.178;4.512;2024-01-25T11:15:31;16.90;;;5.82;;
82030;SDS011;71592;52.178;4.512;2024-01-25T11:17:57;13.90;;;5.18;;
82030;SDS011;71592;52.178;4.512;2024-01-25T11:20:23;14.43;;;5.00;;
82030;SDS011;71592;52.178;4.512;2024-01-25T11:22:48;17.92;;;5.47;;
82030;SDS011;71592;52.178;4.512;2024-01-25T11:25:20;18.05;;;5.43;;
82030;SDS011;71592;52.178;4.512;2024-01-25T11:27:46;14.98;;;4.15;;
82030;SDS011;71592;52.178;4.512;2024-01-25T11:30:11;23.25;;;6.22;;
82030;SDS011;71592;52.178;4.512;2024-01-25T11:32:38;16.25;;;5.40;;
82030;SDS011;71592;52.178;4.512;2024-01-25T11:35:04;16.17;;;5.22;;
82030;SDS011;71592;52.178;4.512;2024-01-25T11:37:30;18.38;;;6.40;;
82030;SDS011;71592;52.178;4.512;2024-01-25T11:39:55;16.20;;;5.20;;
82030;SDS011;71592;52.178;4.512;2024-01-25T11:42:20;17.03;;;5.73;;
82030;SDS011;71592;52.178;4.512;2024-01-25T11:44:47;22.63;;;5.95;;
82030;SDS011;71592;52.178;4.512;2024-01-25T11:47:12;17.80;;;6.20;;
82030;SDS011;71592;52.178;4.512;2024-01-25T11:49:37;18.75;;;5.47;;
82030;SDS011;71592;52.178;4.512;2024-01-25T11:52:04;20.25;;;5.22;;
82030;SDS011;71592;52.178;4.512;2024-01-25T11:54:29;17.92;;;5.85;;
82030;SDS011;71592;52.178;4.512;2024-01-25T11:56:55;16.77;;;6.00;;
82030;SDS011;71592;52.178;4.512;2024-01-25T11:59:20;15.82;;;5.75;;
82030;SDS011;71592;52.178;4.512;2024-01-25T12:01:45;15.88;;;6.03;;
82030;SDS011;71592;52.178;4.512;2024-01-25T12:04:12;18.95;;;5.68;;
82030;SDS011;71592;52.178;4.512;2024-01-25T12:06:37;19.83;;;5.35;;
82030;SDS011;71592;52.178;4.512;2024-01-25T12:09:09;16.80;;;6.70;;
82030;SDS011;71592;52.178;4.512;2024-01-25T12:11:34;16.67;;;6.03;;
82030;SDS011;71592;52.178;4.512;2024-01-25T12:13:59;17.60;;;5.23;;
82030;SDS011;71592;52.178;4.512;2024-01-25T12:16:25;20.30;;;5.77;;
82030;SDS011;71592;52.178;4.512;2024-01-25T12:18:50;14.90;;;5.57;;
82030;SDS011;71592;52.178;4.512;2024-01-25T12:21:15;16.03;;;5.73;;
82030;SDS011;71592;52.178;4.512;2024-01-25T12:23:40;16.60;;;6.83;;
82030;SDS011;71592;52.178;4.512;2024-01-25T12:26:07;22.15;;;5.45;;
82030;SDS011;71592;52.178;4.512;2024-01-25T12:28:32;21.08;;;5.82;;
82030;SDS011;71592;52.178;4.512;2024-01-25T12:30:58;20.63;;;5.00;;
82030;SDS011;71592;52.178;4.512;2024-01-25T12:33:25;19.13;;;5.75;;
82030;SDS011;71592;52.178;4.512;2024-01-25T12:35:50;17.88;;;6.30;;
82030;SDS011;71592;52.178;4.512;2024-01-25T12:38:15;20.03;;;6.00;;
82030;SDS011;71592;52.178;4.512;2024-01-25T12:40:45;18.75;;;6.13;;
82030;SDS011;71592;52.178;4.512;2024-01-25T12:43:11;19.15;;;6.18;;
82030;SDS011;71592;52.178;4.512;2024-01-25T12:45:36;20.10;;;6.20;;
82030;SDS011;71592;52.178;4.512;2024-01-25T12:48:02;16.67;;;5.57;;
82030;SDS011;71592;52.178;4.512;2024-01-25T12:50:28;16.80;;;6.15;;
82030;SDS011;71592;52.178;4.512;2024-01-25T12:52:53;20.80;;;6.85;;
82030;SDS011;71592;52.178;4.512;2024-01-25T12:55:21;17.87;;;6.13;;
82030;SDS011;71592;52.178;4.512;2024-01-25T12:57:47;14.15;;;6.07;;
82030;SDS011;71592;52.178;4.512;2024-01-25T13:00:12;20.42;;;6.57;;
82030;SDS011;71592;52.178;4.512;2024-01-25T13:02:37;21.98;;;6.00;;
82030;SDS011;71592;52.178;4.512;2024-01-25T13:05:03;22.40;;;6.27;;
82030;SDS011;71592;52.178;4.512;2024-01-25T13:07:28;22.58;;;6.13;;
82030;SDS011;71592;52.178;4.512;2024-01-25T13:09:54;21.47;;;6.57;;
82030;SDS011;71592;52.178;4.512;2024-01-25T13:12:19;22.10;;;6.93;;
82030;SDS011;71592;52.178;4.512;2024-01-25T13:14:44;20.23;;;6.17;;
82030;SDS011;71592;52.178;4.512;2024-01-25T13:17:09;23.93;;;5.57;;
82030;SDS011;71592;52.178;4.512;2024-01-25T13:19:35;21.67;;;5.70;;
82030;SDS011;71592;52.178;4.512;2024-01-25T13:22:00;18.80;;;5.23;;
82030;SDS011;71592;52.178;4.512;2024-01-25T13:24:26;22.20;;;6.18;;
82030;SDS011;71592;52.178;4.512;2024-01-25T13:26:51;19.27;;;6.13;;
82030;SDS011;71592;52.178;4.512;2024-01-25T13:29:16;17.42;;;6.25;;
82030;SDS011;71592;52.178;4.512;2024-01-25T13:31:42;25.00;;;5.90;;
82030;SDS011;71592;52.178;4.512;2024-01-25T13:34:07;23.00;;;6.90;;
82030;SDS011;71592;52.178;4.512;2024-01-25T13:36:32;20.10;;;6.00;;
82030;SDS011;71592;52.178;4.512;2024-01-25T13:38:57;26.53;;;7.23;;
82030;SDS011;71592;52.178;4.512;2024-01-25T13:41:23;19.23;;;7.67;;
82030;SDS011;71592;52.178;4.512;2024-01-25T13:43:51;21.33;;;6.70;;
82030;SDS011;71592;52.178;4.512;2024-01-25T13:46:16;19.80;;;6.40;;
82030;SDS011;71592;52.178;4.512;2024-01-25T13:48:41;15.13;;;5.80;;
82030;SDS011;71592;52.178;4.512;2024-01-25T13:51:07;15.63;;;5.53;;
82030;SDS011;71592;52.178;4.512;2024-01-25T13:53:33;19.30;;;6.85;;
82030;SDS011;71592;52.178;4.512;2024-01-25T13:55:59;19.38;;;5.28;;
82030;SDS011;71592;52.178;4.512;2024-01-25T13:58:24;17.42;;;5.07;;
82030;SDS011;71592;52.178;4.512;2024-01-25T14:00:50;19.50;;;5.47;;
82030;SDS011;71592;52.178;4.512;2024-01-25T14:03:15;25.52;;;6.72;;
82030;SDS011;71592;52.178;4.512;2024-01-25T14:05:43;22.75;;;6.60;;
82030;SDS011;71592;52.178;4.512;2024-01-25T14:08:09;22.50;;;6.70;;
82030;SDS011;71592;52.178;4.512;2024-01-25T14:10:34;17.40;;;6.33;;
82030;SDS011;71592;52.178;4.512;2024-01-25T14:13:00;15.10;;;5.40;;
82030;SDS011;71592;52.178;4.512;2024-01-25T14:15:25;18.92;;;5.63;;
82030;SDS011;71592;52.178;4.512;2024-01-25T14:17:50;15.32;;;5.45;;
82030;SDS011;71592;52.178;4.512;2024-01-25T14:20:16;15.50;;;5.33;;
82030;SDS011;71592;52.178;4.512;2024-01-25T14:22:42;15.07;;;5.80;;